Terminal Aerodrome Forecast
Issued by NWS Wichita, KS

Home | Current Version | Previous Version | Graphics & Text | Print | Product List | Glossary On
Versions: 1 2 3 4 5 6 7 8 9 10 11 12 13 14 15 16 17 18 19
515
FTUS43 KICT 262336
TAFICT
TAF
KICT 262336Z 2700/2724 14005KT P6SM SCT070 BKN150
     FM270600 VRB05KT P6SM VCTS BKN070CB
     FM271100 35010KT P6SM BKN060
     FM271300 36011KT P6SM BKN025
     FM271900 36012KT P6SM SCT035=

USA.gov is the U.S. government's official web portal to all federal, state and local government web resources and services.